sensor_id;sensor_type;location;lat;lon;timestamp;P1;durP1;ratioP1;P2;durP2;ratioP2
11531;SDS011;5822;51.000;5.874;2022-08-19T00:00:06;43.37;;;39.77;;
11531;SDS011;5822;51.000;5.874;2022-08-19T00:02:34;44.03;;;40.53;;
11531;SDS011;5822;51.000;5.874;2022-08-19T00:05:00;43.10;;;39.70;;
11531;SDS011;5822;51.000;5.874;2022-08-19T00:07:26;45.47;;;41.87;;
11531;SDS011;5822;51.000;5.874;2022-08-19T00:09:51;46.30;;;42.60;;
11531;SDS011;5822;51.000;5.874;2022-08-19T00:12:17;45.70;;;42.07;;
11531;SDS011;5822;51.000;5.874;2022-08-19T00:14:43;43.57;;;40.07;;
11531;SDS011;5822;51.000;5.874;2022-08-19T00:17:08;45.33;;;41.73;;
11531;SDS011;5822;51.000;5.874;2022-08-19T00:19:35;45.70;;;42.10;;
11531;SDS011;5822;51.000;5.874;2022-08-19T00:22:01;46.07;;;42.33;;
11531;SDS011;5822;51.000;5.874;2022-08-19T00:24:27;45.80;;;42.13;;
11531;SDS011;5822;51.000;5.874;2022-08-19T00:26:54;47.40;;;43.50;;
11531;SDS011;5822;51.000;5.874;2022-08-19T00:29:22;44.60;;;41.00;;
11531;SDS011;5822;51.000;5.874;2022-08-19T00:31:49;44.47;;;40.97;;
11531;SDS011;5822;51.000;5.874;2022-08-19T00:34:18;43.23;;;39.73;;
11531;SDS011;5822;51.000;5.874;2022-08-19T00:36:44;44.90;;;41.30;;
11531;SDS011;5822;51.000;5.874;2022-08-19T00:39:10;44.57;;;40.97;;
11531;SDS011;5822;51.000;5.874;2022-08-19T00:41:36;44.90;;;41.23;;
11531;SDS011;5822;51.000;5.874;2022-08-19T00:44:06;44.57;;;40.87;;
11531;SDS011;5822;51.000;5.874;2022-08-19T00:46:38;43.93;;;40.47;;
11531;SDS011;5822;51.000;5.874;2022-08-19T00:49:16;43.53;;;40.03;;
11531;SDS011;5822;51.000;5.874;2022-08-19T00:52:07;43.80;;;40.20;;
11531;SDS011;5822;51.000;5.874;2022-08-19T00:54:45;43.60;;;40.10;;
11531;SDS011;5822;51.000;5.874;2022-08-19T00:57:14;44.97;;;41.37;;
11531;SDS011;5822;51.000;5.874;2022-08-19T00:59:44;43.63;;;40.03;;
11531;SDS011;5822;51.000;5.874;2022-08-19T01:02:13;46.30;;;42.50;;
11531;SDS011;5822;51.000;5.874;2022-08-19T01:04:41;46.13;;;42.43;;
11531;SDS011;5822;51.000;5.874;2022-08-19T01:07:07;45.30;;;41.57;;
11531;SDS011;5822;51.000;5.874;2022-08-19T01:09:33;45.93;;;42.03;;
11531;SDS011;5822;51.000;5.874;2022-08-19T01:11:58;45.70;;;41.80;;
11531;SDS011;5822;51.000;5.874;2022-08-19T01:14:25;45.33;;;41.63;;
11531;SDS011;5822;51.000;5.874;2022-08-19T01:16:50;46.03;;;42.23;;
11531;SDS011;5822;51.000;5.874;2022-08-19T01:19:41;48.23;;;44.33;;
11531;SDS011;5822;51.000;5.874;2022-08-19T01:24:59;46.40;;;42.50;;
11531;SDS011;5822;51.000;5.874;2022-08-19T01:27:26;47.23;;;43.27;;
11531;SDS011;5822;51.000;5.874;2022-08-19T01:29:52;46.93;;;42.93;;
11531;SDS011;5822;51.000;5.874;2022-08-19T01:32:17;47.03;;;43.07;;
11531;SDS011;5822;51.000;5.874;2022-08-19T01:34:44;46.87;;;43.03;;
11531;SDS011;5822;51.000;5.874;2022-08-19T01:37:12;48.47;;;44.57;;
11531;SDS011;5822;51.000;5.874;2022-08-19T01:39:39;47.40;;;43.50;;
11531;SDS011;5822;51.000;5.874;2022-08-19T01:42:07;48.30;;;44.13;;
11531;SDS011;5822;51.000;5.874;2022-08-19T01:44:35;47.10;;;43.23;;
11531;SDS011;5822;51.000;5.874;2022-08-19T01:47:01;46.03;;;42.33;;
11531;SDS011;5822;51.000;5.874;2022-08-19T01:49:28;48.17;;;44.23;;
11531;SDS011;5822;51.000;5.874;2022-08-19T01:51:54;49.27;;;45.00;;
11531;SDS011;5822;51.000;5.874;2022-08-19T01:54:21;47.13;;;43.33;;
11531;SDS011;5822;51.000;5.874;2022-08-19T01:56:48;47.97;;;43.90;;
11531;SDS011;5822;51.000;5.874;2022-08-19T01:59:17;45.63;;;41.93;;
11531;SDS011;5822;51.000;5.874;2022-08-19T02:01:45;46.43;;;42.53;;
11531;SDS011;5822;51.000;5.874;2022-08-19T02:04:11;45.27;;;41.50;;
11531;SDS011;5822;51.000;5.874;2022-08-19T02:06:36;47.97;;;43.97;;
11531;SDS011;5822;51.000;5.874;2022-08-19T02:09:03;48.43;;;44.33;;
11531;SDS011;5822;51.000;5.874;2022-08-19T02:11:32;48.43;;;44.33;;
11531;SDS011;5822;51.000;5.874;2022-08-19T02:14:01;47.13;;;43.23;;
11531;SDS011;5822;51.000;5.874;2022-08-19T02:16:29;46.23;;;42.30;;
11531;SDS011;5822;51.000;5.874;2022-08-19T02:18:55;46.10;;;42.20;;
11531;SDS011;5822;51.000;5.874;2022-08-19T02:21:22;46.63;;;42.83;;
11531;SDS011;5822;51.000;5.874;2022-08-19T02:23:49;45.67;;;41.77;;
11531;SDS011;5822;51.000;5.874;2022-08-19T02:26:15;46.97;;;42.87;;
11531;SDS011;5822;51.000;5.874;2022-08-19T02:28:41;48.07;;;44.13;;
11531;SDS011;5822;51.000;5.874;2022-08-19T02:31:11;47.17;;;43.30;;
11531;SDS011;5822;51.000;5.874;2022-08-19T02:33:40;46.10;;;42.27;;
11531;SDS011;5822;51.000;5.874;2022-08-19T02:36:06;45.97;;;42.23;;
11531;SDS011;5822;51.000;5.874;2022-08-19T02:38:33;46.37;;;42.47;;
11531;SDS011;5822;51.000;5.874;2022-08-19T02:41:01;47.20;;;43.23;;
11531;SDS011;5822;51.000;5.874;2022-08-19T02:43:30;48.57;;;44.50;;
11531;SDS011;5822;51.000;5.874;2022-08-19T02:45:56;48.30;;;44.30;;
11531;SDS011;5822;51.000;5.874;2022-08-19T02:48:23;47.40;;;43.50;;
11531;SDS011;5822;51.000;5.874;2022-08-19T02:50:51;46.77;;;42.87;;
11531;SDS011;5822;51.000;5.874;2022-08-19T02:53:20;46.80;;;42.80;;
11531;SDS011;5822;51.000;5.874;2022-08-19T02:55:47;46.30;;;42.40;;
11531;SDS011;5822;51.000;5.874;2022-08-19T02:58:14;46.63;;;42.77;;
11531;SDS011;5822;51.000;5.874;2022-08-19T03:00:41;47.73;;;43.73;;
11531;SDS011;5822;51.000;5.874;2022-08-19T03:03:11;48.50;;;44.30;;
11531;SDS011;5822;51.000;5.874;2022-08-19T03:05:38;48.97;;;44.97;;
11531;SDS011;5822;51.000;5.874;2022-08-19T03:08:04;47.03;;;43.03;;
11531;SDS011;5822;51.000;5.874;2022-08-19T03:10:30;48.80;;;44.50;;
11531;SDS011;5822;51.000;5.874;2022-08-19T03:12:57;48.97;;;44.67;;
11531;SDS011;5822;51.000;5.874;2022-08-19T03:15:22;49.77;;;45.27;;
11531;SDS011;5822;51.000;5.874;2022-08-19T03:17:48;52.77;;;48.07;;
11531;SDS011;5822;51.000;5.874;2022-08-19T03:20:13;54.83;;;49.93;;
11531;SDS011;5822;51.000;5.874;2022-08-19T03:22:39;51.90;;;47.33;;
11531;SDS011;5822;51.000;5.874;2022-08-19T03:25:04;53.80;;;49.00;;
11531;SDS011;5822;51.000;5.874;2022-08-19T03:27:30;53.03;;;48.33;;
11531;SDS011;5822;51.000;5.874;2022-08-19T03:29:56;51.60;;;47.03;;
11531;SDS011;5822;51.000;5.874;2022-08-19T03:32:21;51.90;;;47.30;;
11531;SDS011;5822;51.000;5.874;2022-08-19T03:34:47;52.00;;;47.37;;
11531;SDS011;5822;51.000;5.874;2022-08-19T03:37:13;51.87;;;47.27;;
11531;SDS011;5822;51.000;5.874;2022-08-19T03:39:39;51.97;;;47.37;;
11531;SDS011;5822;51.000;5.874;2022-08-19T03:42:07;53.50;;;48.70;;
11531;SDS011;5822;51.000;5.874;2022-08-19T03:44:33;53.77;;;48.93;;
11531;SDS011;5822;51.000;5.874;2022-08-19T03:46:59;53.27;;;48.57;;
11531;SDS011;5822;51.000;5.874;2022-08-19T03:49:26;53.17;;;48.37;;
11531;SDS011;5822;51.000;5.874;2022-08-19T03:51:54;52.23;;;47.50;;
11531;SDS011;5822;51.000;5.874;2022-08-19T03:54:22;52.63;;;47.83;;
11531;SDS011;5822;51.000;5.874;2022-08-19T03:56:49;53.97;;;49.00;;
11531;SDS011;5822;51.000;5.874;2022-08-19T03:59:18;55.33;;;50.17;;
11531;SDS011;5822;51.000;5.874;2022-08-19T04:01:46;54.13;;;48.97;;
11531;SDS011;5822;51.000;5.874;2022-08-19T04:04:12;54.23;;;49.20;;
11531;SDS011;5822;51.000;5.874;2022-08-19T04:06:38;55.27;;;49.93;;
11531;SDS011;5822;51.000;5.874;2022-08-19T04:09:08;55.57;;;50.27;;
11531;SDS011;5822;51.000;5.874;2022-08-19T04:11:38;56.73;;;51.17;;
11531;SDS011;5822;51.000;5.874;2022-08-19T04:14:07;56.70;;;51.33;;
11531;SDS011;5822;51.000;5.874;2022-08-19T04:16:33;56.60;;;51.27;;
11531;SDS011;5822;51.000;5.874;2022-08-19T04:18:59;59.20;;;53.47;;
11531;SDS011;5822;51.000;5.874;2022-08-19T04:21:26;56.70;;;51.30;;
11531;SDS011;5822;51.000;5.874;2022-08-19T04:23:53;58.20;;;52.53;;
11531;SDS011;5822;51.000;5.874;2022-08-19T04:26:29;60.07;;;54.17;;
11531;SDS011;5822;51.000;5.874;2022-08-19T04:28:58;60.23;;;54.30;;
11531;SDS011;5822;51.000;5.874;2022-08-19T04:31:30;61.47;;;55.43;;
11531;SDS011;5822;51.000;5.874;2022-08-19T04:33:58;60.73;;;54.53;;
11531;SDS011;5822;51.000;5.874;2022-08-19T04:36:34;60.40;;;54.20;;
11531;SDS011;5822;51.000;5.874;2022-08-19T04:39:03;61.83;;;55.43;;
11531;SDS011;5822;51.000;5.874;2022-08-19T04:41:31;60.07;;;54.07;;
11531;SDS011;5822;51.000;5.874;2022-08-19T04:44:32;63.50;;;56.83;;
11531;SDS011;5822;51.000;5.874;2022-08-19T04:47:00;66.40;;;59.63;;
11531;SDS011;5822;51.000;5.874;2022-08-19T04:49:30;64.93;;;58.03;;
11531;SDS011;5822;51.000;5.874;2022-08-19T04:51:56;61.37;;;55.37;;
11531;SDS011;5822;51.000;5.874;2022-08-19T04:54:23;62.73;;;56.33;;
11531;SDS011;5822;51.000;5.874;2022-08-19T04:56:50;61.17;;;55.07;;
11531;SDS011;5822;51.000;5.874;2022-08-19T04:59:18;61.33;;;55.17;;
11531;SDS011;5822;51.000;5.874;2022-08-19T05:01:45;62.63;;;56.27;;
11531;SDS011;5822;51.000;5.874;2022-08-19T05:04:14;71.87;;;65.17;;
11531;SDS011;5822;51.000;5.874;2022-08-19T05:06:42;73.63;;;66.63;;
11531;SDS011;5822;51.000;5.874;2022-08-19T05:09:08;70.60;;;63.70;;
11531;SDS011;5822;51.000;5.874;2022-08-19T05:11:35;68.83;;;62.03;;
11531;SDS011;5822;51.000;5.874;2022-08-19T05:14:05;70.13;;;63.47;;
11531;SDS011;5822;51.000;5.874;2022-08-19T05:16:32;67.33;;;60.83;;
11531;SDS011;5822;51.000;5.874;2022-08-19T05:18:58;68.97;;;62.20;;
11531;SDS011;5822;51.000;5.874;2022-08-19T05:21:42;68.33;;;61.60;;
11531;SDS011;5822;51.000;5.874;2022-08-19T05:24:27;69.70;;;63.00;;
11531;SDS011;5822;51.000;5.874;2022-08-19T05:26:54;71.40;;;64.37;;
11531;SDS011;5822;51.000;5.874;2022-08-19T05:29:22;68.50;;;61.77;;
11531;SDS011;5822;51.000;5.874;2022-08-19T05:31:50;67.97;;;61.33;;
11531;SDS011;5822;51.000;5.874;2022-08-19T05:34:17;68.50;;;61.80;;
11531;SDS011;5822;51.000;5.874;2022-08-19T05:36:46;66.93;;;60.47;;
11531;SDS011;5822;51.000;5.874;2022-08-19T05:39:14;66.80;;;60.17;;
11531;SDS011;5822;51.000;5.874;2022-08-19T05:41:42;69.70;;;63.10;;
11531;SDS011;5822;51.000;5.874;2022-08-19T05:44:09;68.43;;;61.73;;
11531;SDS011;5822;51.000;5.874;2022-08-19T05:46:35;66.37;;;59.80;;
11531;SDS011;5822;51.000;5.874;2022-08-19T05:49:03;65.37;;;59.07;;
11531;SDS011;5822;51.000;5.874;2022-08-19T05:51:30;65.00;;;58.60;;
11531;SDS011;5822;51.000;5.874;2022-08-19T05:53:57;64.67;;;58.30;;
11531;SDS011;5822;51.000;5.874;2022-08-19T05:56:23;62.40;;;56.37;;
11531;SDS011;5822;51.000;5.874;2022-08-19T05:58:49;65.50;;;59.30;;
11531;SDS011;5822;51.000;5.874;2022-08-19T06:01:15;64.83;;;58.47;;
11531;SDS011;5822;51.000;5.874;2022-08-19T06:03:43;65.30;;;58.90;;
11531;SDS011;5822;51.000;5.874;2022-08-19T06:06:09;62.67;;;56.60;;
11531;SDS011;5822;51.000;5.874;2022-08-19T06:08:36;62.67;;;56.77;;
11531;SDS011;5822;51.000;5.874;2022-08-19T06:11:13;60.33;;;54.30;;
11531;SDS011;5822;51.000;5.874;2022-08-19T06:13:41;60.67;;;54.77;;
11531;SDS011;5822;51.000;5.874;2022-08-19T06:16:08;62.73;;;56.70;;
11531;SDS011;5822;51.000;5.874;2022-08-19T06:18:34;62.13;;;56.33;;
11531;SDS011;5822;51.000;5.874;2022-08-19T06:20:59;59.40;;;53.73;;
11531;SDS011;5822;51.000;5.874;2022-08-19T06:23:28;59.30;;;53.57;;
11531;SDS011;5822;51.000;5.874;2022-08-19T06:25:54;61.73;;;56.07;;
11531;SDS011;5822;51.000;5.874;2022-08-19T06:28:20;61.90;;;56.10;;
11531;SDS011;5822;51.000;5.874;2022-08-19T06:30:45;62.53;;;56.93;;
11531;SDS011;5822;51.000;5.874;2022-08-19T06:33:11;62.67;;;56.83;;
11531;SDS011;5822;51.000;5.874;2022-08-19T06:35:40;67.17;;;60.70;;
11531;SDS011;5822;51.000;5.874;2022-08-19T06:38:06;63.90;;;57.87;;
11531;SDS011;5822;51.000;5.874;2022-08-19T06:40:32;65.63;;;59.57;;
11531;SDS011;5822;51.000;5.874;2022-08-19T06:42:57;56.47;;;50.93;;
11531;SDS011;5822;51.000;5.874;2022-08-19T06:45:25;56.33;;;50.50;;
11531;SDS011;5822;51.000;5.874;2022-08-19T06:47:51;58.30;;;52.53;;
11531;SDS011;5822;51.000;5.874;2022-08-19T06:50:19;58.60;;;52.80;;
11531;SDS011;5822;51.000;5.874;2022-08-19T06:52:44;54.77;;;49.43;;
11531;SDS011;5822;51.000;5.874;2022-08-19T06:55:11;56.83;;;51.17;;
11531;SDS011;5822;51.000;5.874;2022-08-19T06:57:37;57.27;;;51.57;;
11531;SDS011;5822;51.000;5.874;2022-08-19T07:00:04;56.70;;;51.10;;
11531;SDS011;5822;51.000;5.874;2022-08-19T07:02:31;57.60;;;51.67;;
11531;SDS011;5822;51.000;5.874;2022-08-19T07:04:57;55.37;;;49.97;;
11531;SDS011;5822;51.000;5.874;2022-08-19T07:07:23;56.47;;;50.93;;
11531;SDS011;5822;51.000;5.874;2022-08-19T07:09:49;59.03;;;52.97;;
11531;SDS011;5822;51.000;5.874;2022-08-19T07:12:17;61.20;;;55.00;;
11531;SDS011;5822;51.000;5.874;2022-08-19T07:14:43;58.77;;;52.43;;
11531;SDS011;5822;51.000;5.874;2022-08-19T07:17:11;58.70;;;52.53;;
11531;SDS011;5822;51.000;5.874;2022-08-19T07:19:37;58.37;;;52.07;;
11531;SDS011;5822;51.000;5.874;2022-08-19T07:22:04;55.90;;;50.27;;
11531;SDS011;5822;51.000;5.874;2022-08-19T07:24:32;57.20;;;51.27;;
11531;SDS011;5822;51.000;5.874;2022-08-19T07:26:59;54.20;;;48.70;;
11531;SDS011;5822;51.000;5.874;2022-08-19T07:29:27;54.07;;;48.63;;
11531;SDS011;5822;51.000;5.874;2022-08-19T07:31:55;53.93;;;48.63;;
11531;SDS011;5822;51.000;5.874;2022-08-19T07:34:24;53.77;;;48.30;;
11531;SDS011;5822;51.000;5.874;2022-08-19T07:36:51;53.73;;;48.43;;
11531;SDS011;5822;51.000;5.874;2022-08-19T07:39:20;52.70;;;47.53;;
11531;SDS011;5822;51.000;5.874;2022-08-19T07:41:54;56.70;;;51.17;;
11531;SDS011;5822;51.000;5.874;2022-08-19T07:44:20;55.10;;;49.40;;
11531;SDS011;5822;51.000;5.874;2022-08-19T07:46:48;54.33;;;49.17;;
11531;SDS011;5822;51.000;5.874;2022-08-19T07:49:16;51.60;;;46.77;;
11531;SDS011;5822;51.000;5.874;2022-08-19T07:51:48;51.40;;;46.40;;
11531;SDS011;5822;51.000;5.874;2022-08-19T07:54:16;51.67;;;46.57;;
11531;SDS011;5822;51.000;5.874;2022-08-19T07:56:42;51.47;;;46.43;;
11531;SDS011;5822;51.000;5.874;2022-08-19T07:59:08;49.97;;;45.13;;
11531;SDS011;5822;51.000;5.874;2022-08-19T08:01:34;50.20;;;45.40;;
11531;SDS011;5822;51.000;5.874;2022-08-19T08:04:00;49.43;;;44.73;;
11531;SDS011;5822;51.000;5.874;2022-08-19T08:06:44;49.60;;;44.90;;
11531;SDS011;5822;51.000;5.874;2022-08-19T08:09:32;47.13;;;42.83;;
11531;SDS011;5822;51.000;5.874;2022-08-19T08:12:06;46.37;;;41.80;;
11531;SDS011;5822;51.000;5.874;2022-08-19T08:14:40;45.57;;;41.40;;
11531;SDS011;5822;51.000;5.874;2022-08-19T08:17:11;45.53;;;41.43;;
11531;SDS011;5822;51.000;5.874;2022-08-19T08:19:37;45.87;;;41.30;;
11531;SDS011;5822;51.000;5.874;2022-08-19T08:22:06;44.73;;;40.57;;
11531;SDS011;5822;51.000;5.874;2022-08-19T08:24:32;41.87;;;38.27;;
11531;SDS011;5822;51.000;5.874;2022-08-19T08:26:59;40.80;;;37.30;;
11531;SDS011;5822;51.000;5.874;2022-08-19T08:29:26;39.23;;;35.83;;
11531;SDS011;5822;51.000;5.874;2022-08-19T08:31:54;40.20;;;36.57;;
11531;SDS011;5822;51.000;5.874;2022-08-19T08:34:19;43.00;;;38.67;;
11531;SDS011;5822;51.000;5.874;2022-08-19T08:36:45;39.73;;;35.97;;
11531;SDS011;5822;51.000;5.874;2022-08-19T08:39:13;40.20;;;36.50;;
11531;SDS011;5822;51.000;5.874;2022-08-19T08:44:18;38.00;;;34.63;;
11531;SDS011;5822;51.000;5.874;2022-08-19T08:46:55;37.47;;;34.30;;
11531;SDS011;5822;51.000;5.874;2022-08-19T08:49:32;39.30;;;35.93;;
11531;SDS011;5822;51.000;5.874;2022-08-19T08:55:03;48.30;;;44.70;;
11531;SDS011;5822;51.000;5.874;2022-08-19T09:00:17;45.20;;;41.70;;
11531;SDS011;5822;51.000;5.874;2022-08-19T09:02:46;39.53;;;36.10;;
11531;SDS011;5822;51.000;5.874;2022-08-19T09:05:12;40.93;;;37.53;;
11531;SDS011;5822;51.000;5.874;2022-08-19T09:07:57;42.70;;;39.27;;
11531;SDS011;5822;51.000;5.874;2022-08-19T09:10:34;46.73;;;43.23;;
11531;SDS011;5822;51.000;5.874;2022-08-19T09:16:18;37.20;;;33.67;;
11531;SDS011;5822;51.000;5.874;2022-08-19T09:18:46;37.93;;;34.63;;
11531;SDS011;5822;51.000;5.874;2022-08-19T09:21:17;36.87;;;33.57;;
11531;SDS011;5822;51.000;5.874;2022-08-19T09:23:43;44.07;;;40.77;;
11531;SDS011;5822;51.000;5.874;2022-08-19T09:26:10;50.50;;;46.70;;
11531;SDS011;5822;51.000;5.874;2022-08-19T09:28:39;57.87;;;53.67;;
11531;SDS011;5822;51.000;5.874;2022-08-19T09:31:09;36.57;;;33.43;;
11531;SDS011;5822;51.000;5.874;2022-08-19T09:33:35;41.00;;;37.47;;
11531;SDS011;5822;51.000;5.874;2022-08-19T09:36:03;42.50;;;38.67;;
11531;SDS011;5822;51.000;5.874;2022-08-19T09:38:33;43.70;;;40.30;;
11531;SDS011;5822;51.000;5.874;2022-08-19T09:41:04;53.20;;;49.10;;
11531;SDS011;5822;51.000;5.874;2022-08-19T09:43:32;53.13;;;49.33;;
11531;SDS011;5822;51.000;5.874;2022-08-19T09:46:01;43.47;;;40.03;;
11531;SDS011;5822;51.000;5.874;2022-08-19T09:48:30;46.73;;;42.83;;
11531;SDS011;5822;51.000;5.874;2022-08-19T09:51:06;46.03;;;42.63;;
11531;SDS011;5822;51.000;5.874;2022-08-19T09:53:38;48.40;;;44.60;;
11531;SDS011;5822;51.000;5.874;2022-08-19T09:56:04;47.77;;;44.07;;
11531;SDS011;5822;51.000;5.874;2022-08-19T09:58:31;41.93;;;38.30;;
11531;SDS011;5822;51.000;5.874;2022-08-19T10:00:57;44.80;;;41.50;;
11531;SDS011;5822;51.000;5.874;2022-08-19T10:03:25;37.27;;;34.20;;
11531;SDS011;5822;51.000;5.874;2022-08-19T10:05:52;39.50;;;36.40;;
11531;SDS011;5822;51.000;5.874;2022-08-19T10:08:20;40.83;;;37.63;;
11531;SDS011;5822;51.000;5.874;2022-08-19T10:10:50;47.30;;;43.50;;
11531;SDS011;5822;51.000;5.874;2022-08-19T10:13:17;53.40;;;49.27;;
11531;SDS011;5822;51.000;5.874;2022-08-19T10:15:50;55.90;;;51.83;;
11531;SDS011;5822;51.000;5.874;2022-08-19T10:18:16;60.43;;;56.33;;
11531;SDS011;5822;51.000;5.874;2022-08-19T10:20:44;47.03;;;43.20;;
11531;SDS011;5822;51.000;5.874;2022-08-19T10:23:11;48.75;;;44.78;;
11531;SDS011;5822;51.000;5.874;2022-08-19T10:25:37;48.90;;;44.90;;
11531;SDS011;5822;51.000;5.874;2022-08-19T10:28:02;51.83;;;47.53;;
11531;SDS011;5822;51.000;5.874;2022-08-19T10:30:29;56.42;;;52.22;;
11531;SDS011;5822;51.000;5.874;2022-08-19T10:32:54;59.10;;;54.83;;
11531;SDS011;5822;51.000;5.874;2022-08-19T10:35:20;47.47;;;43.78;;
11531;SDS011;5822;51.000;5.874;2022-08-19T10:37:46;45.83;;;42.33;;
11531;SDS011;5822;51.000;5.874;2022-08-19T10:40:11;37.50;;;34.40;;
11531;SDS011;5822;51.000;5.874;2022-08-19T10:42:37;36.93;;;33.93;;
11531;SDS011;5822;51.000;5.874;2022-08-19T10:45:03;42.10;;;38.77;;
11531;SDS011;5822;51.000;5.874;2022-08-19T10:47:30;46.07;;;42.57;;
11531;SDS011;5822;51.000;5.874;2022-08-19T10:49:57;54.40;;;50.13;;
11531;SDS011;5822;51.000;5.874;2022-08-19T10:52:46;57.27;;;53.33;;
11531;SDS011;5822;51.000;5.874;2022-08-19T10:55:13;55.27;;;51.40;;
11531;SDS011;5822;51.000;5.874;2022-08-19T10:57:58;53.90;;;50.20;;
11531;SDS011;5822;51.000;5.874;2022-08-19T11:00:24;45.07;;;41.60;;
11531;SDS011;5822;51.000;5.874;2022-08-19T11:02:51;44.23;;;40.83;;
11531;SDS011;5822;51.000;5.874;2022-08-19T11:05:17;41.72;;;38.55;;
11531;SDS011;5822;51.000;5.874;2022-08-19T11:07:43;46.17;;;42.87;;
11531;SDS011;5822;51.000;5.874;2022-08-19T11:10:11;54.57;;;50.47;;
11531;SDS011;5822;51.000;5.874;2022-08-19T11:12:38;55.33;;;51.53;;
11531;SDS011;5822;51.000;5.874;2022-08-19T11:15:08;57.03;;;53.00;;
11531;SDS011;5822;51.000;5.874;2022-08-19T11:17:37;57.80;;;53.92;;
11531;SDS011;5822;51.000;5.874;2022-08-19T11:20:05;40.45;;;37.45;;
11531;SDS011;5822;51.000;5.874;2022-08-19T11:22:31;42.65;;;39.55;;
11531;SDS011;5822;51.000;5.874;2022-08-19T11:24:57;39.80;;;36.72;;
11531;SDS011;5822;51.000;5.874;2022-08-19T11:27:23;47.65;;;44.35;;
11531;SDS011;5822;51.000;5.874;2022-08-19T11:29:48;50.63;;;46.83;;
11531;SDS011;5822;51.000;5.874;2022-08-19T11:32:14;61.88;;;52.63;;
11531;SDS011;5822;51.000;5.874;2022-08-19T11:34:40;54.25;;;50.55;;
11531;SDS011;5822;51.000;5.874;2022-08-19T11:37:06;42.60;;;39.40;;
11531;SDS011;5822;51.000;5.874;2022-08-19T11:39:33;40.17;;;37.17;;
11531;SDS011;5822;51.000;5.874;2022-08-19T11:42:01;40.80;;;37.60;;
11531;SDS011;5822;51.000;5.874;2022-08-19T11:44:49;46.40;;;43.30;;
11531;SDS011;5822;51.000;5.874;2022-08-19T11:47:15;50.95;;;47.78;;
11531;SDS011;5822;51.000;5.874;2022-08-19T11:49:41;51.67;;;48.55;;
11531;SDS011;5822;51.000;5.874;2022-08-19T11:52:07;53.87;;;50.50;;
11531;SDS011;5822;51.000;5.874;2022-08-19T11:54:33;43.50;;;40.53;;
11531;SDS011;5822;51.000;5.874;2022-08-19T11:56:59;41.28;;;38.45;;
11531;SDS011;5822;51.000;5.874;2022-08-19T11:59:27;43.33;;;40.22;;
11531;SDS011;5822;51.000;5.874;2022-08-19T12:01:54;44.95;;;41.78;;
11531;SDS011;5822;51.000;5.874;2022-08-19T12:04:20;48.37;;;45.07;;
11531;SDS011;5822;51.000;5.874;2022-08-19T12:06:47;46.70;;;43.60;;
11531;SDS011;5822;51.000;5.874;2022-08-19T12:09:12;51.50;;;47.97;;
11531;SDS011;5822;51.000;5.874;2022-08-19T12:11:39;39.80;;;37.10;;
11531;SDS011;5822;51.000;5.874;2022-08-19T12:14:05;40.47;;;37.63;;
11531;SDS011;5822;51.000;5.874;2022-08-19T12:16:34;40.28;;;37.47;;
11531;SDS011;5822;51.000;5.874;2022-08-19T12:19:00;41.08;;;38.28;;
11531;SDS011;5822;51.000;5.874;2022-08-19T12:21:30;46.72;;;43.33;;
11531;SDS011;5822;51.000;5.874;2022-08-19T12:23:57;48.47;;;45.35;;
11531;SDS011;5822;51.000;5.874;2022-08-19T12:26:24;50.28;;;47.08;;
11531;SDS011;5822;51.000;5.874;2022-08-19T12:28:51;52.23;;;49.00;;
11531;SDS011;5822;51.000;5.874;2022-08-19T12:31:17;37.97;;;35.30;;
11531;SDS011;5822;51.000;5.874;2022-08-19T12:33:44;42.55;;;38.42;;
11531;SDS011;5822;51.000;5.874;2022-08-19T12:36:12;36.78;;;34.30;;
11531;SDS011;5822;51.000;5.874;2022-08-19T12:38:40;41.85;;;38.97;;
11531;SDS011;5822;51.000;5.874;2022-08-19T12:41:09;46.58;;;43.65;;
11531;SDS011;5822;51.000;5.874;2022-08-19T12:43:37;48.28;;;45.20;;
11531;SDS011;5822;51.000;5.874;2022-08-19T12:46:05;45.67;;;42.67;;
11531;SDS011;5822;51.000;5.874;2022-08-19T12:48:32;47.85;;;44.65;;
11531;SDS011;5822;51.000;5.874;2022-08-19T12:50:58;34.13;;;31.77;;
11531;SDS011;5822;51.000;5.874;2022-08-19T12:53:34;34.22;;;31.83;;
11531;SDS011;5822;51.000;5.874;2022-08-19T12:56:00;34.63;;;31.55;;
11531;SDS011;5822;51.000;5.874;2022-08-19T12:58:26;38.67;;;36.17;;
11531;SDS011;5822;51.000;5.874;2022-08-19T13:00:53;41.90;;;39.20;;
11531;SDS011;5822;51.000;5.874;2022-08-19T13:03:19;44.10;;;41.30;;
11531;SDS011;5822;51.000;5.874;2022-08-19T13:05:47;45.72;;;42.92;;
11531;SDS011;5822;51.000;5.874;2022-08-19T13:08:15;44.92;;;42.22;;
11531;SDS011;5822;51.000;5.874;2022-08-19T13:10:41;46.75;;;43.85;;
11531;SDS011;5822;51.000;5.874;2022-08-19T13:13:07;32.85;;;30.55;;
11531;SDS011;5822;51.000;5.874;2022-08-19T13:15:35;30.55;;;28.35;;
11531;SDS011;5822;51.000;5.874;2022-08-19T13:18:02;30.40;;;28.02;;
11531;SDS011;5822;51.000;5.874;2022-08-19T13:20:28;38.58;;;36.08;;
11531;SDS011;5822;51.000;5.874;2022-08-19T13:22:54;42.25;;;39.30;;
11531;SDS011;5822;51.000;5.874;2022-08-19T13:25:20;44.33;;;41.53;;
11531;SDS011;5822;51.000;5.874;2022-08-19T13:27:49;42.67;;;40.00;;
11531;SDS011;5822;51.000;5.874;2022-08-19T13:30:16;44.60;;;40.45;;
11531;SDS011;5822;51.000;5.874;2022-08-19T13:33:01;44.20;;;41.17;;
11531;SDS011;5822;51.000;5.874;2022-08-19T13:35:35;30.27;;;27.77;;
11531;SDS011;5822;51.000;5.874;2022-08-19T13:38:12;31.67;;;29.27;;
11531;SDS011;5822;51.000;5.874;2022-08-19T13:40:40;29.85;;;27.50;;
11531;SDS011;5822;51.000;5.874;2022-08-19T13:43:06;50.30;;;38.88;;
11531;SDS011;5822;51.000;5.874;2022-08-19T13:45:33;40.95;;;38.00;;
11531;SDS011;5822;51.000;5.874;2022-08-19T13:47:59;43.10;;;40.20;;
11531;SDS011;5822;51.000;5.874;2022-08-19T13:50:26;43.20;;;40.40;;
11531;SDS011;5822;51.000;5.874;2022-08-19T13:52:53;44.90;;;42.10;;
11531;SDS011;5822;51.000;5.874;2022-08-19T13:55:19;28.90;;;26.73;;
11531;SDS011;5822;51.000;5.874;2022-08-19T13:57:49;30.65;;;27.70;;
11531;SDS011;5822;51.000;5.874;2022-08-19T14:00:20;36.83;;;27.30;;
11531;SDS011;5822;51.000;5.874;2022-08-19T14:02:50;33.50;;;30.83;;
11531;SDS011;5822;51.000;5.874;2022-08-19T14:05:16;37.75;;;35.20;;
11531;SDS011;5822;51.000;5.874;2022-08-19T14:07:42;36.97;;;34.67;;
11531;SDS011;5822;51.000;5.874;2022-08-19T14:10:09;40.03;;;37.63;;
11531;SDS011;5822;51.000;5.874;2022-08-19T14:12:36;43.67;;;40.78;;
11531;SDS011;5822;51.000;5.874;2022-08-19T14:15:03;42.70;;;40.03;;
11531;SDS011;5822;51.000;5.874;2022-08-19T14:17:30;41.13;;;38.47;;
11531;SDS011;5822;51.000;5.874;2022-08-19T14:19:56;28.92;;;26.63;;
11531;SDS011;5822;51.000;5.874;2022-08-19T14:22:31;30.33;;;28.13;;
11531;SDS011;5822;51.000;5.874;2022-08-19T14:24:57;30.10;;;27.90;;
11531;SDS011;5822;51.000;5.874;2022-08-19T14:27:23;34.45;;;32.15;;
11531;SDS011;5822;51.000;5.874;2022-08-19T14:29:50;38.78;;;36.13;;
11531;SDS011;5822;51.000;5.874;2022-08-19T14:32:18;40.75;;;38.03;;
11531;SDS011;5822;51.000;5.874;2022-08-19T14:34:44;43.28;;;40.47;;
11531;SDS011;5822;51.000;5.874;2022-08-19T14:37:13;42.80;;;40.13;;
11531;SDS011;5822;51.000;5.874;2022-08-19T14:39:42;43.50;;;40.80;;
11531;SDS011;5822;51.000;5.874;2022-08-19T14:42:10;29.33;;;27.02;;
11531;SDS011;5822;51.000;5.874;2022-08-19T14:44:36;29.35;;;27.20;;
11531;SDS011;5822;51.000;5.874;2022-08-19T14:47:02;29.63;;;27.42;;
11531;SDS011;5822;51.000;5.874;2022-08-19T14:49:29;32.80;;;30.40;;
11531;SDS011;5822;51.000;5.874;2022-08-19T14:51:54;38.65;;;36.03;;